Time;durP1;ratioP1;P1;durP2;ratioP2;P2;SDS_P1;SDS_P2;PMS_P1;PMS_P2;Temp;Humidity;BMP_temperature;BMP_pressure;BME280_temperature;BME280_humidity;BME280_pressure;Samples;Min_cycle;Max_cycle;Signal;HPM_P1;HPM_P2
2021/12/18 00:00:24;;;;;;;17.45;9.68;;;;;;;;;;5030865;28;20044;-69
2021/12/18 00:02:50;;;;;;;19.75;9.80;;;;;;;;;;5030377;28;20030;-68
2021/12/18 00:05:16;;;;;;;21.77;10.05;;;;;;;;;;5031083;28;20074;-71
2021/12/18 00:07:42;;;;;;;22.10;9.13;;;;;;;;;;5031057;28;20021;-70
2021/12/18 00:10:08;;;;;;;15.23;9.27;;;;;;;;;;5030917;28;20509;-70
2021/12/18 00:12:34;;;;;;;17.35;8.75;;;;;;;;;;5029466;28;20036;-70
2021/12/18 00:15:00;;;;;;;14.95;7.65;;;;;;;;;;5029918;28;20033;-69
2021/12/18 00:17:26;;;;;;;18.05;9.00;;;;;;;;;;5030497;28;20033;-69
2021/12/18 00:19:52;;;;;;;19.60;8.43;;;;;;;;;;5029568;28;20032;-69
2021/12/18 00:22:18;;;;;;;14.52;7.95;;;;;;;;;;5024343;28;20029;-69
2021/12/18 00:24:44;;;;;;;17.73;8.98;;;;;;;;;;5029795;28;20033;-69
2021/12/18 00:27:10;;;;;;;21.35;10.48;;;;;;;;;;5029256;28;20084;-69
2021/12/18 00:29:36;;;;;;;16.98;9.48;;;;;;;;;;5017486;28;20030;-69
2021/12/18 00:32:02;;;;;;;17.67;8.70;;;;;;;;;;5027157;28;20060;-69
2021/12/18 00:34:28;;;;;;;22.67;9.98;;;;;;;;;;5013439;28;20060;-69
2021/12/18 00:36:54;;;;;;;19.42;9.60;;;;;;;;;;5030498;28;20053;-69
2021/12/18 00:39:20;;;;;;;20.85;10.90;;;;;;;;;;5033522;28;20030;-69
2021/12/18 00:42:07;;;;;;;20.20;10.52;;;;;;;;;;5034171;28;20021;-69
2021/12/18 00:44:32;;;;;;;19.42;10.15;;;;;;;;;;5039357;28;20028;-69
2021/12/18 00:46:58;;;;;;;16.55;9.30;;;;;;;;;;5033872;28;20029;-70
2021/12/18 00:49:24;;;;;;;16.55;9.63;;;;;;;;;;5033804;28;20501;-70
2021/12/18 00:51:52;;;;;;;23.08;11.05;;;;;;;;;;5033814;28;20349;-70
2021/12/18 00:54:18;;;;;;;25.40;11.35;;;;;;;;;;5031869;28;20068;-70
2021/12/18 00:56:44;;;;;;;16.17;9.55;;;;;;;;;;5033886;28;20083;-69
2021/12/18 00:59:10;;;;;;;18.33;9.93;;;;;;;;;;5033641;28;20028;-70
2021/12/18 01:01:36;;;;;;;17.70;11.00;;;;;;;;;;5033746;28;20120;-70
2021/12/18 01:04:02;;;;;;;21.20;11.82;;;;;;;;;;5032720;28;20056;-70
2021/12/18 01:06:28;;;;;;;22.02;12.23;;;;;;;;;;5017203;28;20106;-70
2021/12/18 01:08:56;;;;;;;22.45;12.10;;;;;;;;;;5033748;28;20403;-70
2021/12/18 01:11:35;;;;;;;23.65;11.55;;;;;;;;;;5032124;28;20483;-70
2021/12/18 01:16:56;;;;;;;19.85;12.10;;;;;;;;;;5018255;28;20030;-68
2021/12/18 01:24:51;;;;;;;21.52;11.20;;;;;;;;;;5033042;28;20094;-68
2021/12/18 01:27:18;;;;;;;24.38;12.00;;;;;;;;;;5033270;28;20532;-68
2021/12/18 01:29:44;;;;;;;20.33;11.43;;;;;;;;;;5019418;28;20032;-69
2021/12/18 01:32:09;;;;;;;19.48;11.32;;;;;;;;;;5029202;28;20037;-68
2021/12/18 01:34:36;;;;;;;16.90;11.70;;;;;;;;;;5030919;28;20030;-68
2021/12/18 01:37:03;;;;;;;22.77;12.18;;;;;;;;;;5033016;28;20534;-68
2021/12/18 01:39:29;;;;;;;20.40;11.40;;;;;;;;;;5033152;28;20021;-68
2021/12/18 01:52:45;;;;;;;18.27;10.05;;;;;;;;;;5018671;28;20079;-69
2021/12/18 01:55:11;;;;;;;17.67;10.18;;;;;;;;;;5032858;28;20033;-69
2021/12/18 01:57:38;;;;;;;18.05;10.77;;;;;;;;;;5033180;28;20065;-70
2021/12/18 02:00:15;;;;;;;17.58;10.60;;;;;;;;;;5032436;28;20017;-69
2021/12/18 02:02:41;;;;;;;17.98;11.38;;;;;;;;;;5032034;28;20029;-69
2021/12/18 02:05:07;;;;;;;19.77;11.35;;;;;;;;;;5031932;28;20080;-69
2021/12/18 02:07:33;;;;;;;16.17;11.02;;;;;;;;;;5032150;28;20022;-69
2021/12/18 02:10:06;;;;;;;16.95;10.20;;;;;;;;;;5032459;28;20032;-69
2021/12/18 02:20:59;;;;;;;15.93;10.13;;;;;;;;;;5032541;28;20324;-69
2021/12/18 02:23:25;;;;;;;17.02;10.55;;;;;;;;;;5031337;28;20029;-69
2021/12/18 02:25:52;;;;;;;19.25;10.45;;;;;;;;;;5032011;28;20441;-69
2021/12/18 02:28:22;;;;;;;19.77;10.25;;;;;;;;;;5031824;28;20030;-69
2021/12/18 02:30:50;;;;;;;15.15;8.18;;;;;;;;;;5032396;28;20379;-69
2021/12/18 02:33:16;;;;;;;18.98;10.32;;;;;;;;;;5031345;28;20033;-69
2021/12/18 02:35:49;;;;;;;23.30;9.30;;;;;;;;;;5031937;28;20389;-69
2021/12/18 02:38:20;;;;;;;14.02;9.50;;;;;;;;;;5031904;28;20513;-69
2021/12/18 02:41:06;;;;;;;;;;;;;;;;;;5032213;28;20025;-69
2021/12/18 02:43:34;;;;;;;15.50;8.50;;;;;;;;;;5030982;28;19905;-70
2021/12/18 02:46:00;;;;;;;13.38;8.15;;;;;;;;;;5015763;28;20034;-70
2021/12/18 02:48:29;;;;;;;14.40;8.45;;;;;;;;;;5031369;28;20419;-70
2021/12/18 02:50:58;;;;;;;17.30;9.73;;;;;;;;;;5031681;28;20067;-69
2021/12/18 02:53:24;;;;;;;13.38;8.52;;;;;;;;;;5030681;28;20053;-69
2021/12/18 02:55:57;;;;;;;15.23;9.25;;;;;;;;;;5031457;28;20026;-70
2021/12/18 02:58:24;;;;;;;15.25;8.57;;;;;;;;;;5031983;28;20030;-69
2021/12/18 03:00:51;;;;;;;10.93;7.70;;;;;;;;;;5030955;28;20028;-70
2021/12/18 03:03:17;;;;;;;12.93;8.23;;;;;;;;;;5030772;28;20017;-70
2021/12/18 03:05:55;;;;;;;14.98;8.07;;;;;;;;;;5031386;28;20022;-70
2021/12/18 03:08:35;;;;;;;14.30;7.60;;;;;;;;;;5031310;28;20017;-70
2021/12/18 03:24:35;;;;;;;15.00;8.32;;;;;;;;;;5030284;28;20094;-70
2021/12/18 03:27:01;;;;;;;11.82;7.43;;;;;;;;;;5031230;28;20028;-70
2021/12/18 03:29:27;;;;;;;13.15;7.95;;;;;;;;;;5018337;28;20021;-69
2021/12/18 03:31:53;;;;;;;17.75;9.35;;;;;;;;;;5026513;28;20025;-70
2021/12/18 03:34:19;;;;;;;16.88;8.68;;;;;;;;;;5030134;28;20022;-70
2021/12/18 03:36:45;;;;;;;16.40;8.95;;;;;;;;;;5031114;28;20029;-69
2021/12/18 03:39:11;;;;;;;15.13;8.30;;;;;;;;;;5031046;28;20100;-70
2021/12/18 03:41:37;;;;;;;16.38;8.70;;;;;;;;;;5031819;28;20164;-70
2021/12/18 03:44:03;;;;;;;14.15;8.65;;;;;;;;;;5038481;28;20021;-70
2021/12/18 03:46:29;;;;;;;12.98;8.57;;;;;;;;;;5031195;28;20030;-70
2021/12/18 03:48:55;;;;;;;14.60;9.10;;;;;;;;;;5031161;28;20029;-71
2021/12/18 03:51:21;;;;;;;15.38;8.50;;;;;;;;;;5031238;28;20034;-72
2021/12/18 03:53:47;;;;;;;17.25;9.18;;;;;;;;;;5028780;28;20029;-69
2021/12/18 03:56:13;;;;;;;15.95;8.95;;;;;;;;;;5030608;28;20039;-69
2021/12/18 03:58:39;;;;;;;12.27;7.95;;;;;;;;;;5030643;28;20036;-69
2021/12/18 04:01:05;;;;;;;10.90;7.70;;;;;;;;;;5031570;28;20357;-69
2021/12/18 04:03:31;;;;;;;16.83;9.25;;;;;;;;;;5028927;28;20018;-69
2021/12/18 04:05:57;;;;;;;14.25;8.82;;;;;;;;;;5031484;28;20151;-69
2021/12/18 04:08:23;;;;;;;12.18;8.05;;;;;;;;;;5027608;28;20045;-69
2021/12/18 04:10:49;;;;;;;14.70;8.20;;;;;;;;;;5017424;28;20391;-69
2021/12/18 04:13:15;;;;;;;14.80;9.00;;;;;;;;;;5033125;28;20263;-69
2021/12/18 04:15:41;;;;;;;16.83;9.48;;;;;;;;;;5033252;28;20034;-69
2021/12/18 04:18:07;;;;;;;17.48;9.60;;;;;;;;;;5034374;28;20131;-69
2021/12/18 04:20:33;;;;;;;13.30;8.25;;;;;;;;;;5034404;28;20372;-69
2021/12/18 04:22:59;;;;;;;12.93;8.63;;;;;;;;;;5033452;28;20116;-69
2021/12/18 04:25:25;;;;;;;12.10;8.68;;;;;;;;;;5047934;23;20068;-74
2021/12/18 04:27:51;;;;;;;12.80;8.45;;;;;;;;;;5034160;28;20487;-74
2021/12/18 04:30:18;;;;;;;13.43;8.68;;;;;;;;;;5034435;28;20029;-74
2021/12/18 04:32:44;;;;;;;13.00;9.05;;;;;;;;;;5034128;28;20085;-73
2021/12/18 04:35:10;;;;;;;14.23;9.20;;;;;;;;;;5034112;28;20247;-74
2021/12/18 04:37:36;;;;;;;16.75;8.95;;;;;;;;;;5034097;28;20067;-73
2021/12/18 04:40:03;;;;;;;13.77;8.25;;;;;;;;;;5035042;28;20420;-73
2021/12/18 04:42:29;;;;;;;12.02;8.57;;;;;;;;;;5018050;28;20088;-73
2021/12/18 04:44:55;;;;;;;14.50;9.18;;;;;;;;;;5041246;28;20156;-74
2021/12/18 04:47:21;;;;;;;15.93;9.20;;;;;;;;;;5032853;28;20030;-74
2021/12/18 04:49:47;;;;;;;13.60;8.30;;;;;;;;;;5034263;28;20035;-72
2021/12/18 04:52:13;;;;;;;14.75;9.10;;;;;;;;;;5032401;28;20116;-73
2021/12/18 04:54:39;;;;;;;13.23;7.95;;;;;;;;;;5032921;28;20032;-72
2021/12/18 04:57:05;;;;;;;11.43;7.15;;;;;;;;;;5033691;28;20033;-73
2021/12/18 04:59:31;;;;;;;12.13;6.20;;;;;;;;;;5029994;28;20107;-73
2021/12/18 05:01:57;;;;;;;7.25;5.10;;;;;;;;;;5033731;28;20014;-74
2021/12/18 05:04:23;;;;;;;7.20;4.13;;;;;;;;;;5033062;28;20537;-73
2021/12/18 05:06:51;;;;;;;10.80;4.75;;;;;;;;;;5033283;28;20337;-72
2021/12/18 05:09:18;;;;;;;10.40;4.13;;;;;;;;;;5032234;28;20488;-73
2021/12/18 05:11:44;;;;;;;6.43;3.85;;;;;;;;;;5033634;28;20025;-72
2021/12/18 05:14:10;;;;;;;7.90;5.35;;;;;;;;;;5031147;28;20053;-74
2021/12/18 05:16:36;;;;;;;8.75;4.90;;;;;;;;;;5033207;28;20131;-74
2021/12/18 05:19:03;;;;;;;6.57;4.45;;;;;;;;;;5033579;28;20026;-73
2021/12/18 05:21:29;;;;;;;8.88;5.25;;;;;;;;;;5033111;28;20092;-72
2021/12/18 05:23:55;;;;;;;8.57;4.85;;;;;;;;;;5031776;28;20053;-73
2021/12/18 05:26:21;;;;;;;8.00;5.32;;;;;;;;;;5032338;28;20030;-74
2021/12/18 05:28:47;;;;;;;9.35;5.32;;;;;;;;;;5033405;28;20040;-74
2021/12/18 05:31:16;;;;;;;9.02;5.38;;;;;;;;;;5033221;28;20399;-74
2021/12/18 05:33:43;;;;;;;8.35;5.40;;;;;;;;;;5032290;28;20113;-74
2021/12/18 05:36:29;;;;;;;9.27;5.20;;;;;;;;;;5032678;28;20120;-73
2021/12/18 05:38:55;;;;;;;5.90;3.78;;;;;;;;;;5033022;28;20021;-73
2021/12/18 05:41:21;;;;;;;6.53;4.10;;;;;;;;;;5033107;28;20033;-73
2021/12/18 05:43:47;;;;;;;6.13;4.22;;;;;;;;;;5032730;28;20026;-74
2021/12/18 05:46:13;;;;;;;5.78;3.38;;;;;;;;;;5016728;28;20117;-72
2021/12/18 05:48:38;;;;;;;7.20;3.95;;;;;;;;;;5032646;28;20459;-73
2021/12/18 05:51:05;;;;;;;5.50;3.70;;;;;;;;;;5032969;28;20076;-73
2021/12/18 05:53:32;;;;;;;4.95;3.28;;;;;;;;;;5031978;28;20372;-73
2021/12/18 05:55:58;;;;;;;4.72;3.35;;;;;;;;;;5031466;28;20029;-74
2021/12/18 05:58:24;;;;;;;5.13;3.45;;;;;;;;;;5032312;28;20472;-71
2021/12/18 06:00:50;;;;;;;6.15;3.80;;;;;;;;;;5032638;28;20037;-73
2021/12/18 06:03:16;;;;;;;6.65;3.65;;;;;;;;;;5030713;28;20021;-74
2021/12/18 06:05:42;;;;;;;5.88;4.03;;;;;;;;;;5032706;28;20096;-73
2021/12/18 06:08:12;;;;;;;5.07;3.75;;;;;;;;;;5031710;28;20018;-72
2021/12/18 06:10:38;;;;;;;4.82;3.45;;;;;;;;;;5032149;28;20013;-72
2021/12/18 06:13:04;;;;;;;5.07;3.20;;;;;;;;;;5031726;28;20056;-72
2021/12/18 06:15:31;;;;;;;5.43;3.22;;;;;;;;;;5030835;28;20399;-72
2021/12/18 06:17:58;;;;;;;5.25;3.58;;;;;;;;;;5032187;28;20120;-73
2021/12/18 06:20:25;;;;;;;6.18;3.08;;;;;;;;;;5031924;28;20395;-73
2021/12/18 06:22:52;;;;;;;6.28;4.00;;;;;;;;;;5031925;28;20114;-74
2021/12/18 06:25:17;;;;;;;4.60;3.00;;;;;;;;;;5030809;28;20029;-73
2021/12/18 06:27:43;;;;;;;6.43;4.10;;;;;;;;;;5032508;28;20403;-74
2021/12/18 06:30:10;;;;;;;3.92;3.00;;;;;;;;;;5031922;28;20029;-73
2021/12/18 06:32:36;;;;;;;3.30;2.63;;;;;;;;;;5031927;28;20045;-74
2021/12/18 06:35:02;;;;;;;4.75;3.05;;;;;;;;;;5029494;28;20084;-73
2021/12/18 06:37:28;;;;;;;5.22;3.83;;;;;;;;;;5030279;28;20488;-73
2021/12/18 06:39:54;;;;;;;5.18;3.67;;;;;;;;;;5032306;28;20029;-73
2021/12/18 06:42:20;;;;;;;5.22;3.60;;;;;;;;;;5031786;28;20100;-72
2021/12/18 06:44:46;;;;;;;5.22;3.75;;;;;;;;;;5024944;28;20483;-73
2021/12/18 06:47:12;;;;;;;5.75;3.58;;;;;;;;;;5020563;28;20025;-73
2021/12/18 06:49:38;;;;;;;4.90;3.47;;;;;;;;;;5030469;28;20026;-73
2021/12/18 06:52:04;;;;;;;6.70;4.25;;;;;;;;;;5031742;28;20082;-72
2021/12/18 06:54:30;;;;;;;7.70;5.22;;;;;;;;;;5031040;28;20040;-73
2021/12/18 06:56:56;;;;;;;5.88;4.43;;;;;;;;;;5031698;28;20053;-73
2021/12/18 06:59:22;;;;;;;7.60;5.20;;;;;;;;;;5031498;28;20475;-73
2021/12/18 07:01:52;;;;;;;7.82;5.40;;;;;;;;;;5030246;28;20040;-73
2021/12/18 07:04:18;;;;;;;8.88;5.38;;;;;;;;;;5029493;28;20029;-73
2021/12/18 07:06:44;;;;;;;7.60;5.28;;;;;;;;;;5030234;28;20040;-73
2021/12/18 07:09:09;;;;;;;7.82;5.53;;;;;;;;;;5032180;28;20040;-73
2021/12/18 07:11:35;;;;;;;7.25;5.20;;;;;;;;;;5032847;28;20083;-74
2021/12/18 07:14:01;;;;;;;8.43;5.97;;;;;;;;;;5030582;28;20032;-73
2021/12/18 07:16:27;;;;;;;10.02;5.72;;;;;;;;;;5031217;28;20475;-73
2021/12/18 07:18:53;;;;;;;9.25;6.28;;;;;;;;;;5031674;28;20025;-73
2021/12/18 07:21:19;;;;;;;9.10;6.32;;;;;;;;;;5031413;28;20036;-73
2021/12/18 07:23:45;;;;;;;7.47;5.00;;;;;;;;;;5030777;28;20017;-74
2021/12/18 07:26:12;;;;;;;8.57;5.63;;;;;;;;;;5031936;28;20053;-73
2021/12/18 07:28:38;;;;;;;8.57;5.70;;;;;;;;;;5030943;28;20030;-73
2021/12/18 07:31:04;;;;;;;9.75;6.20;;;;;;;;;;5031303;28;20035;-74
2021/12/18 07:33:30;;;;;;;10.35;6.38;;;;;;;;;;5030421;28;20029;-73
2021/12/18 07:35:56;;;;;;;9.45;6.57;;;;;;;;;;5031252;28;20108;-73
2021/12/18 07:38:22;;;;;;;11.50;7.10;;;;;;;;;;5029453;28;20549;-73
2021/12/18 07:40:48;;;;;;;9.63;6.80;;;;;;;;;;5029631;28;20532;-73
2021/12/18 07:43:14;;;;;;;7.55;5.43;;;;;;;;;;5029866;28;20033;-74
2021/12/18 07:45:40;;;;;;;6.28;4.47;;;;;;;;;;5016367;28;20465;-72
2021/12/18 07:48:06;;;;;;;5.18;3.53;;;;;;;;;;5031236;28;20116;-70
2021/12/18 07:50:32;;;;;;;4.13;2.88;;;;;;;;;;5034932;28;20013;-72
2021/12/18 07:52:58;;;;;;;2.83;2.55;;;;;;;;;;5034428;28;20033;-71
2021/12/18 07:55:25;;;;;;;4.95;3.47;;;;;;;;;;5034781;28;20079;-73
2021/12/18 07:57:51;;;;;;;4.97;3.03;;;;;;;;;;5035222;28;20041;-74
2021/12/18 08:00:18;;;;;;;5.78;3.65;;;;;;;;;;5020101;28;20021;-74
2021/12/18 08:02:44;;;;;;;9.70;3.90;;;;;;;;;;5034244;28;20044;-73
2021/12/18 08:05:10;;;;;;;5.93;3.80;;;;;;;;;;5034735;28;20468;-73
2021/12/18 08:07:36;;;;;;;5.38;3.85;;;;;;;;;;5033715;28;20124;-74
2021/12/18 08:10:02;;;;;;;6.03;4.28;;;;;;;;;;5034620;28;20509;-73
2021/12/18 08:12:28;;;;;;;5.80;4.32;;;;;;;;;;5034456;28;20387;-74
2021/12/18 08:14:56;;;;;;;6.68;4.35;;;;;;;;;;5034090;28;20029;-74
2021/12/18 08:17:22;;;;;;;6.97;4.28;;;;;;;;;;5033504;28;20483;-73
2021/12/18 08:19:48;;;;;;;7.45;5.47;;;;;;;;;;5028767;28;20026;-74
2021/12/18 08:22:14;;;;;;;5.75;4.05;;;;;;;;;;5033945;28;20036;-73
2021/12/18 08:24:40;;;;;;;3.92;3.05;;;;;;;;;;5034877;28;20033;-71
2021/12/18 08:27:07;;;;;;;3.60;2.60;;;;;;;;;;5036406;28;20487;-71
2021/12/18 08:29:33;;;;;;;4.43;3.38;;;;;;;;;;5023523;28;20022;-71
2021/12/18 08:31:59;;;;;;;7.78;4.40;;;;;;;;;;5030792;28;20365;-72
2021/12/18 08:34:25;;;;;;;6.05;4.10;;;;;;;;;;5033343;28;20475;-71
2021/12/18 08:36:51;;;;;;;6.30;4.32;;;;;;;;;;5032849;28;20105;-69
2021/12/18 08:39:17;;;;;;;6.20;4.30;;;;;;;;;;5034131;28;20092;-70
2021/12/18 08:41:45;;;;;;;6.68;4.72;;;;;;;;;;5033159;28;20026;-70
2021/12/18 08:44:11;;;;;;;6.63;4.72;;;;;;;;;;5030936;28;20041;-70
2021/12/18 08:46:38;;;;;;;8.90;4.57;;;;;;;;;;5018533;28;20519;-71
2021/12/18 08:49:04;;;;;;;7.95;4.78;;;;;;;;;;5034177;28;20078;-68
2021/12/18 08:51:30;;;;;;;6.70;5.15;;;;;;;;;;5033931;28;20078;-70
2021/12/18 08:53:56;;;;;;;8.32;5.68;;;;;;;;;;5032994;28;20403;-72
2021/12/18 08:56:22;;;;;;;7.80;5.38;;;;;;;;;;5033439;28;20033;-71
2021/12/18 08:58:50;;;;;;;6.97;5.03;;;;;;;;;;5028333;28;20056;-71
2021/12/18 09:01:16;;;;;;;9.18;5.45;;;;;;;;;;5024067;28;20032;-71
2021/12/18 09:03:41;;;;;;;9.73;6.45;;;;;;;;;;5031658;28;20029;-70
2021/12/18 09:06:07;;;;;;;8.90;5.90;;;;;;;;;;5033714;28;20034;-69
2021/12/18 09:08:33;;;;;;;11.43;6.22;;;;;;;;;;5033201;28;20036;-71
2021/12/18 09:10:59;;;;;;;8.90;6.47;;;;;;;;;;5033447;28;20028;-70
2021/12/18 09:13:26;;;;;;;7.65;5.68;;;;;;;;;;5032598;28;20029;-72
2021/12/18 09:15:52;;;;;;;8.50;6.07;;;;;;;;;;5032816;28;20032;-72
2021/12/18 09:18:17;;;;;;;7.63;5.35;;;;;;;;;;5033395;28;20025;-70
2021/12/18 09:20:46;;;;;;;9.65;6.32;;;;;;;;;;5033108;28;20516;-71
2021/12/18 09:23:15;;;;;;;8.80;5.72;;;;;;;;;;5032345;28;20475;-69
2021/12/18 09:25:41;;;;;;;12.43;6.32;;;;;;;;;;5033144;28;20045;-70
2021/12/18 09:28:07;;;;;;;10.70;6.95;;;;;;;;;;5033250;28;20445;-69
2021/12/18 09:30:34;;;;;;;9.18;6.10;;;;;;;;;;5033093;28;20018;-70
2021/12/18 09:33:00;;;;;;;8.73;5.70;;;;;;;;;;5032644;28;20281;-69
2021/12/18 09:35:26;;;;;;;8.93;6.13;;;;;;;;;;5033052;28;20096;-71
2021/12/18 09:37:52;;;;;;;9.73;5.45;;;;;;;;;;5033009;28;20029;-72
2021/12/18 09:40:19;;;;;;;8.45;6.07;;;;;;;;;;5033031;28;20675;-71
2021/12/18 09:42:46;;;;;;;7.32;4.90;;;;;;;;;;5032418;28;20078;-69
2021/12/18 09:45:13;;;;;;;7.38;5.10;;;;;;;;;;5023350;28;20048;-69
2021/12/18 09:47:39;;;;;;;7.75;5.57;;;;;;;;;;5026235;28;20112;-71
2021/12/18 09:50:05;;;;;;;7.47;5.22;;;;;;;;;;5032972;28;20026;-71
2021/12/18 09:52:35;;;;;;;6.72;4.90;;;;;;;;;;5032706;28;20026;-71
2021/12/18 09:55:01;;;;;;;8.02;4.57;;;;;;;;;;5032183;28;20168;-68
2021/12/18 09:57:27;;;;;;;7.43;4.43;;;;;;;;;;5032720;28;20431;-71
2021/12/18 09:59:53;;;;;;;9.45;5.40;;;;;;;;;;5032833;28;20053;-70
2021/12/18 10:02:19;;;;;;;8.30;5.65;;;;;;;;;;5032246;28;20033;-71
2021/12/18 10:04:46;;;;;;;8.73;5.97;;;;;;;;;;5031666;28;20029;-71
2021/12/18 10:07:15;;;;;;;8.68;5.57;;;;;;;;;;5032917;28;20079;-68
2021/12/18 10:09:41;;;;;;;11.07;6.22;;;;;;;;;;5031061;28;20117;-70
2021/12/18 10:12:13;;;;;;;13.02;7.20;;;;;;;;;;5032284;28;20060;-70
2021/12/18 10:14:41;;;;;;;10.75;7.00;;;;;;;;;;5031264;28;20096;-70
2021/12/18 10:17:19;;;;;;;14.77;7.22;;;;;;;;;;5032322;28;20032;-67
2021/12/18 10:19:45;;;;;;;9.68;6.53;;;;;;;;;;5032507;28;20017;-71
2021/12/18 10:22:13;;;;;;;9.50;6.88;;;;;;;;;;5032293;28;20386;-71
2021/12/18 10:24:43;;;;;;;12.93;6.85;;;;;;;;;;5063475;22;20046;-67
2021/12/18 10:27:22;;;;;;;10.30;6.82;;;;;;;;;;5073355;28;20028;-66
2021/12/18 10:29:50;;;;;;;9.18;6.47;;;;;;;;;;5072033;28;20029;-67
2021/12/18 10:32:19;;;;;;;13.90;7.70;;;;;;;;;;5072436;28;20024;-67
2021/12/18 10:34:51;;;;;;;11.73;7.65;;;;;;;;;;5070806;28;20035;-66
2021/12/18 10:37:25;;;;;;;11.20;7.70;;;;;;;;;;5071531;28;20032;-67
2021/12/18 10:39:53;;;;;;;16.73;8.85;;;;;;;;;;5071946;28;20070;-67
2021/12/18 10:42:23;;;;;;;11.90;8.02;;;;;;;;;;5071502;28;20032;-67
2021/12/18 10:45:01;;;;;;;12.55;9.00;;;;;;;;;;5062856;28;20028;-67
2021/12/18 10:47:41;;;;;;;14.52;9.15;;;;;;;;;;5071798;28;20046;-67
2021/12/18 10:50:28;;;;;;;11.13;8.68;;;;;;;;;;5071891;28;20390;-66
2021/12/18 10:53:05;;;;;;;13.80;8.85;;;;;;;;;;5063464;28;20086;-66
2021/12/18 10:55:32;;;;;;;13.35;8.13;;;;;;;;;;5062594;28;20025;-73
2021/12/18 10:57:58;;;;;;;11.38;8.55;;;;;;;;;;5065235;28;20089;-72
2021/12/18 11:00:33;;;;;;;12.93;8.75;;;;;;;;;;5071513;28;20048;-73
2021/12/18 11:03:12;;;;;;;11.65;8.23;;;;;;;;;;5055237;28;20445;-74
2021/12/18 11:05:38;;;;;;;9.88;7.35;;;;;;;;;;5070089;28;20062;-77
2021/12/18 11:08:08;;;;;;;9.63;7.05;;;;;;;;;;5067392;28;20028;-74
2021/12/18 11:15:51;;;;;;;8.00;5.93;;;;;;;;;;5071534;28;20046;-76
2021/12/18 11:18:20;;;;;;;9.77;6.03;;;;;;;;;;5070248;28;20111;-75
2021/12/18 11:20:51;;;;;;;7.25;5.85;;;;;;;;;;5069856;28;20060;-75
2021/12/18 11:23:21;;;;;;;7.40;5.87;;;;;;;;;;5069890;28;20020;-71
2021/12/18 11:25:48;;;;;;;11.25;6.22;;;;;;;;;;5071803;28;20274;-71
2021/12/18 11:28:14;;;;;;;7.47;5.38;;;;;;;;;;5070680;28;20028;-69
2021/12/18 11:30:40;;;;;;;7.72;5.50;;;;;;;;;;5070483;28;20028;-73
2021/12/18 11:33:06;;;;;;;7.25;5.40;;;;;;;;;;5070161;28;20017;-71
2021/12/18 11:35:33;;;;;;;8.43;5.80;;;;;;;;;;5069770;28;20046;-76
2021/12/18 11:38:03;;;;;;;121.65;60.33;;;;;;;;;;5077038;28;20029;-75
2021/12/18 11:40:34;;;;;;;20.00;11.00;;;;;;;;;;5069703;28;20056;-75
2021/12/18 11:43:00;;;;;;;41.70;16.35;;;;;;;;;;5070724;28;20025;-72
2021/12/18 11:45:33;;;;;;;10.15;6.63;;;;;;;;;;5070207;28;20019;-74
2021/12/18 11:48:00;;;;;;;22.20;10.18;;;;;;;;;;5070801;28;20025;-75
2021/12/18 11:50:33;;;;;;;15.38;8.85;;;;;;;;;;5070251;28;20509;-73
2021/12/18 11:53:08;;;;;;;26.02;12.57;;;;;;;;;;5054690;28;20020;-70
2021/12/18 11:55:56;;;;;;;12.25;6.80;;;;;;;;;;5070128;28;20044;-74
2021/12/18 11:58:24;;;;;;;26.15;12.65;;;;;;;;;;5070084;28;20484;-72
2021/12/18 12:00:51;;;;;;;34.28;15.00;;;;;;;;;;5070921;28;20103;-72
2021/12/18 12:03:38;;;;;;;31.40;14.93;;;;;;;;;;5065556;28;20017;-70
2021/12/18 12:06:20;;;;;;;11.85;6.00;;;;;;;;;;5077520;28;20401;-70
2021/12/18 12:08:51;;;;;;;17.98;8.80;;;;;;;;;;5070868;28;20437;-71
2021/12/18 12:11:21;;;;;;;8.77;4.82;;;;;;;;;;5070966;28;20013;-72
2021/12/18 12:13:50;;;;;;;118.28;54.20;;;;;;;;;;5070715;28;20024;-73
2021/12/18 12:16:16;;;;;;;134.20;58.58;;;;;;;;;;5069748;28;20060;-73
2021/12/18 12:19:03;;;;;;;58.13;25.08;;;;;;;;;;5070407;28;20175;-71
2021/12/18 12:21:49;;;;;;;95.38;44.50;;;;;;;;;;5071021;28;20044;-71
2021/12/18 12:24:19;;;;;;;22.70;11.35;;;;;;;;;;5070493;28;20025;-72
2021/12/18 12:26:46;;;;;;;37.75;17.05;;;;;;;;;;5069511;28;20047;-70
2021/12/18 12:29:13;;;;;;;88.20;41.80;;;;;;;;;;5070845;28;20364;-71
2021/12/18 12:31:53;;;;;;;20.23;9.80;;;;;;;;;;5070894;28;20104;-71
2021/12/18 12:34:37;;;;;;;62.45;26.42;;;;;;;;;;5070345;28;20108;-68
2021/12/18 12:37:22;;;;;;;71.18;33.15;;;;;;;;;;5063071;28;20023;-71
2021/12/18 12:39:52;;;;;;;60.67;26.95;;;;;;;;;;5074558;28;20395;-70
2021/12/18 12:42:18;;;;;;;24.10;10.65;;;;;;;;;;5072901;28;20031;-69
2021/12/18 12:44:58;;;;;;;53.13;22.55;;;;;;;;;;5062084;28;20045;-71
2021/12/18 12:47:27;;;;;;;35.88;16.33;;;;;;;;;;5072634;28;20013;-71
2021/12/18 12:49:57;;;;;;;42.42;17.92;;;;;;;;;;5074208;28;20401;-71
2021/12/18 12:52:25;;;;;;;33.67;16.47;;;;;;;;;;5073234;28;20025;-71
2021/12/18 12:55:13;;;;;;;97.20;46.33;;;;;;;;;;5071477;28;20375;-72
2021/12/18 12:57:41;;;;;;;86.25;38.13;;;;;;;;;;5072641;28;20464;-72
2021/12/18 13:00:07;;;;;;;31.00;14.80;;;;;;;;;;5061908;28;20028;-72
2021/12/18 13:02:34;;;;;;;40.97;18.75;;;;;;;;;;5068917;28;20393;-71
2021/12/18 13:05:06;;;;;;;13.73;7.70;;;;;;;;;;5071500;28;20077;-71
2021/12/18 13:07:33;;;;;;;38.17;17.77;;;;;;;;;;5069135;28;20032;-70
2021/12/18 13:09:59;;;;;;;29.25;14.48;;;;;;;;;;5074217;28;20036;-70
2021/12/18 13:12:24;;;;;;;67.80;31.77;;;;;;;;;;5072059;28;20036;-71
2021/12/18 13:14:52;;;;;;;22.52;11.65;;;;;;;;;;5072673;28;20025;-71
2021/12/18 13:17:22;;;;;;;30.95;15.75;;;;;;;;;;5073789;28;20374;-71
2021/12/18 13:19:54;;;;;;;21.33;11.23;;;;;;;;;;5072380;28;20075;-71
2021/12/18 13:22:23;;;;;;;79.18;34.45;;;;;;;;;;5074163;28;20028;-69
2021/12/18 13:25:08;;;;;;;39.88;20.10;;;;;;;;;;5072857;28;20040;-72
2021/12/18 13:27:35;;;;;;;52.88;23.73;;;;;;;;;;5074000;28;20021;-72
2021/12/18 13:30:10;;;;;;;27.15;13.38;;;;;;;;;;5074416;28;20028;-72
2021/12/18 13:32:55;;;;;;;31.73;16.45;;;;;;;;;;5074081;28;20033;-71
2021/12/18 13:35:32;;;;;;;;;;;;;;;;;;;;;
2021/12/18 13:38:05;;;;;;;44.75;21.55;;;;;;;;;;5073418;28;20631;-71
2021/12/18 13:40:33;;;;;;;32.63;14.60;;;;;;;;;;5071684;28;20028;-72
2021/12/18 13:43:08;;;;;;;67.95;31.67;;;;;;;;;;5072566;28;20024;-71
2021/12/18 13:45:50;;;;;;;47.05;22.33;;;;;;;;;;5061884;28;20066;-71
2021/12/18 13:48:18;;;;;;;16.52;8.90;;;;;;;;;;5072340;28;20025;-71
2021/12/18 13:50:51;;;;;;;37.05;17.48;;;;;;;;;;5072266;28;20024;-70
2021/12/18 13:53:19;;;;;;;76.15;34.50;;;;;;;;;;5070842;28;20060;-70
2021/12/18 13:55:47;;;;;;;45.08;21.13;;;;;;;;;;5073131;28;20025;-73
2021/12/18 13:58:13;;;;;;;17.35;9.18;;;;;;;;;;5071226;28;20074;-73
2021/12/18 14:00:52;;;;;;;59.83;27.75;;;;;;;;;;5071939;28;20123;-74
2021/12/18 14:03:22;;;;;;;153.73;70.70;;;;;;;;;;5065268;28;20071;-73
2021/12/18 14:05:49;;;;;;;28.93;14.73;;;;;;;;;;5070900;28;20540;-72
2021/12/18 14:08:16;;;;;;;28.90;15.23;;;;;;;;;;5059473;28;20048;-72
2021/12/18 14:10:42;;;;;;;73.57;34.88;;;;;;;;;;5070050;28;20033;-75
2021/12/18 14:13:08;;;;;;;83.78;38.20;;;;;;;;;;5071304;28;20040;-74
2021/12/18 14:15:34;;;;;;;90.82;41.00;;;;;;;;;;5072816;28;20024;-74
2021/12/18 14:18:00;;;;;;;13.18;7.72;;;;;;;;;;5073584;28;20103;-72
2021/12/18 14:20:27;;;;;;;123.80;56.67;;;;;;;;;;5074102;28;20017;-73
2021/12/18 14:22:58;;;;;;;83.25;38.22;;;;;;;;;;5074098;28;20054;-73
2021/12/18 14:25:24;;;;;;;30.75;15.60;;;;;;;;;;5074410;28;20021;-72
2021/12/18 14:27:52;;;;;;;51.65;25.48;;;;;;;;;;5073035;28;20032;-72
2021/12/18 14:30:22;;;;;;;44.22;21.58;;;;;;;;;;5072926;28;20032;-75
2021/12/18 14:32:53;;;;;;;36.83;18.65;;;;;;;;;;5074095;28;20029;-77
2021/12/18 14:35:19;;;;;;;17.23;8.45;;;;;;;;;;5074179;28;20047;-76
2021/12/18 14:37:51;;;;;;;27.08;13.10;;;;;;;;;;5073800;28;20025;-78
2021/12/18 14:40:19;;;;;;;70.18;28.85;;;;;;;;;;5073310;28;20028;-73
2021/12/18 14:42:56;;;;;;;90.20;38.45;;;;;;;;;;5071654;28;20107;-72
2021/12/18 14:45:24;;;;;;;88.90;40.72;;;;;;;;;;5071796;28;20027;-73
2021/12/18 14:47:51;;;;;;;42.40;19.10;;;;;;;;;;5071536;28;20016;-73
2021/12/18 14:50:19;;;;;;;72.07;32.10;;;;;;;;;;5071451;28;20024;-73
2021/12/18 14:52:48;;;;;;;69.85;34.17;;;;;;;;;;5071035;28;20035;-72
2021/12/18 14:55:14;;;;;;;75.55;35.58;;;;;;;;;;5070809;28;20020;-77
2021/12/18 14:57:50;;;;;;;79.35;37.90;;;;;;;;;;5071111;28;20394;-71
2021/12/18 15:00:22;;;;;;;30.15;16.13;;;;;;;;;;5070111;28;20024;-72
2021/12/18 15:03:06;;;;;;;50.20;23.02;;;;;;;;;;5069819;28;20224;-71
2021/12/18 15:05:43;;;;;;;38.78;20.95;;;;;;;;;;5069564;28;20013;-73
2021/12/18 15:08:17;;;;;;;21.95;11.27;;;;;;;;;;5071745;28;20032;-72
2021/12/18 15:10:51;;;;;;;24.02;14.15;;;;;;;;;;5071969;28;20393;-71
2021/12/18 15:13:18;;;;;;;86.70;40.30;;;;;;;;;;5068478;28;20040;-71
2021/12/18 15:15:47;;;;;;;104.65;46.50;;;;;;;;;;5069316;28;20078;-70
2021/12/18 15:18:13;;;;;;;76.50;35.75;;;;;;;;;;5068786;28;20025;-69
2021/12/18 15:20:39;;;;;;;45.05;23.02;;;;;;;;;;5070941;28;20559;-72
2021/12/18 15:23:05;;;;;;;85.93;39.70;;;;;;;;;;5069065;28;20020;-71